createdAt,value
2016-12-26T00:50:54.243Z,7.87
2016-12-26T00:51:47.759Z,7.88
2016-12-26T00:52:19.767Z,7.84
2016-12-26T00:53:13.396Z,7.87
2016-12-26T00:54:06.442Z,7.85
2016-12-26T00:55:00.195Z,7.84
2016-12-26T00:55:53.692Z,7.85
2016-12-26T00:56:47.128Z,7.88
2016-12-26T00:57:40.658Z,7.87
2016-12-26T00:58:34.217Z,7.87
2016-12-26T00:59:27.708Z,7.87
2016-12-26T01:00:21.174Z,7.85
2016-12-26T01:01:14.579Z,7.84
2016-12-26T01:02:08.555Z,7.81
2016-12-26T01:03:02.086Z,7.84
2016-12-26T01:03:55.696Z,7.87
2016-12-26T01:04:49.194Z,7.9
2016-12-26T01:05:42.375Z,7.87
2016-12-26T01:06:35.807Z,7.87
2016-12-26T01:07:26.702Z,7.84
2016-12-26T01:08:21.210Z,7.88
2016-12-26T01:09:14.611Z,7.84
2016-12-26T01:10:07.751Z,7.87
2016-12-26T01:11:01.267Z,7.88
2016-12-26T01:11:52.653Z,7.88
2016-12-26T01:13:02.776Z,7.87
2016-12-26T01:51:30.946Z,7.69
2016-12-26T01:52:24.735Z,7.7
2016-12-26T01:53:18.068Z,7.75
2016-12-26T01:54:11.549Z,7.7
2016-12-26T01:55:05.238Z,7.75
2016-12-26T01:55:37.272Z,7.74
2016-12-26T01:56:30.726Z,7.72
2016-12-26T01:57:24.282Z,7.72
2016-12-26T01:58:17.854Z,7.61
2016-12-26T01:59:11.248Z,7.72
2016-12-26T02:00:04.749Z,7.75
2016-12-26T02:00:58.368Z,7.69
2016-12-26T02:01:29.954Z,7.67
2016-12-26T02:02:01.819Z,7.64
2016-12-26T02:02:55.333Z,7.64
2016-12-26T02:03:48.506Z,7.62
2016-12-26T02:04:41.929Z,7.67
2016-12-26T02:05:35.377Z,7.61
2016-12-26T02:06:29.061Z,7.61
2016-12-26T02:07:23.318Z,7.59
2016-12-26T02:08:16.409Z,7.62
2016-12-26T02:09:13.771Z,7.62
2016-12-26T02:10:27.139Z,7.67
2016-12-26T02:11:20.375Z,7.66
2016-12-26T02:12:14.351Z,7.61
2016-12-26T02:13:08.859Z,7.62
2016-12-26T02:13:40.079Z,7.66
2016-12-26T02:14:33.909Z,7.62
2016-12-26T03:51:43.968Z,8.17
2016-12-26T03:52:35.810Z,8.18
2016-12-26T03:53:05.822Z,8.11
2016-12-26T03:53:59.705Z,8.13
2016-12-26T04:50:24.361Z,7.96
2016-12-26T04:51:17.813Z,7.96
2016-12-26T04:51:48.991Z,7.99
2016-12-26T04:52:42.671Z,8.01
2016-12-26T04:53:12.704Z,7.91
2016-12-26T05:50:23.647Z,7.95
2016-12-26T05:51:17.504Z,7.91
2016-12-26T05:52:11.024Z,7.99
2016-12-26T05:53:05.165Z,7.95
2016-12-26T05:53:58.496Z,7.91
2016-12-26T05:54:51.517Z,7.91
2016-12-26T05:55:45.102Z,7.91
2016-12-26T05:56:38.593Z,7.84
2016-12-26T05:57:31.970Z,7.85
2016-12-26T05:58:25.562Z,7.93
2016-12-26T05:59:17.158Z,7.98
2016-12-26T06:00:11.642Z,7.91
2016-12-26T06:01:05.145Z,7.96
2016-12-26T06:01:58.686Z,7.96
2016-12-26T06:02:52.533Z,7.93
2016-12-26T06:03:46.045Z,7.96
2016-12-26T06:04:39.219Z,7.9
2016-12-26T06:05:32.707Z,7.95
2016-12-26T06:06:26.517Z,7.93
2016-12-26T06:07:19.748Z,7.9
2016-12-26T06:08:13.403Z,7.9
2016-12-26T06:09:06.876Z,7.96
2016-12-26T06:09:38.697Z,7.91
2016-12-26T06:10:32.480Z,7.9
2016-12-26T06:11:04.337Z,7.88
2016-12-26T06:11:57.586Z,7.96
2016-12-26T06:12:51.461Z,7.96
2016-12-26T06:13:44.977Z,8.01
2016-12-26T06:14:38.087Z,7.93
2016-12-26T06:15:09.901Z,7.85
2016-12-26T06:16:03.499Z,7.85
2016-12-26T06:16:57.370Z,7.87
2016-12-26T06:17:50.984Z,7.93
2016-12-26T06:50:45.896Z,8.17
2016-12-26T06:51:39.440Z,8.13
2016-12-26T07:50:26.946Z,8.06
2016-12-26T07:51:18.767Z,8.02
2016-12-26T07:52:09.646Z,7.96
2016-12-26T07:53:03.676Z,7.99
2016-12-26T07:53:55.329Z,7.95
2016-12-26T07:55:06.285Z,8.01
2016-12-26T08:49:48.283Z,8.08
2016-12-26T08:50:41.962Z,8.09
2016-12-26T08:51:35.521Z,8.05
2016-12-26T08:52:29.000Z,8.03
2016-12-26T08:53:00.782Z,8.11
2016-12-26T08:53:54.441Z,8.06
2016-12-26T08:54:48.055Z,8.13
2016-12-26T08:55:41.753Z,8.03
2016-12-26T08:56:35.367Z,8.02
2016-12-26T08:57:28.346Z,8.17
2016-12-26T08:58:21.862Z,8.17
2016-12-26T08:59:15.306Z,8.2
2016-12-26T09:00:09.182Z,8.23
2016-12-26T09:01:02.325Z,8.26
2016-12-26T09:01:56.300Z,8.28
2016-12-26T09:02:49.780Z,8.35
2016-12-26T09:03:43.246Z,8.34
2016-12-26T09:04:53.435Z,8.35
2016-12-26T09:05:43.677Z,8.32
2016-12-26T09:51:49.073Z,9.22
2016-12-26T09:52:42.513Z,9.24
2016-12-26T09:53:36.109Z,9.34
2016-12-26T09:54:08.297Z,9.34
2016-12-26T09:55:03.630Z,9.48
2016-12-26T09:55:57.086Z,9.59
2016-12-26T09:56:50.614Z,9.82
2016-12-26T09:57:44.428Z,9.82
2016-12-26T09:58:37.918Z,9.99
2016-12-26T09:59:31.384Z,10.02
2016-12-26T10:00:03.085Z,10.06
2016-12-26T10:00:56.897Z,10.02
2016-12-26T10:01:50.534Z,10
2016-12-26T10:02:44.030Z,10.06
2016-12-26T10:03:37.635Z,10
2016-12-26T10:04:31.426Z,9.88
2016-12-26T10:05:24.868Z,9.85
2016-12-26T10:06:18.572Z,9.84
2016-12-26T10:06:50.042Z,9.84
2016-12-26T10:07:43.707Z,9.73
2016-12-26T10:08:37.336Z,9.77
2016-12-26T10:09:35.854Z,9.67
2016-12-26T11:53:14.593Z,9.76
2016-12-26T11:54:08.170Z,9.84
2016-12-26T11:55:02.637Z,9.87
2016-12-26T11:55:56.026Z,9.84
2016-12-26T12:53:00.321Z,9.84
2016-12-26T12:53:54.417Z,9.87
2016-12-26T12:54:58.893Z,9.84
2016-12-26T12:55:30.738Z,9.87
2016-12-26T19:18:33.401Z,3.77
2016-12-26T19:19:43.627Z,3.73
2016-12-26T19:52:35.325Z,2.95
2016-12-26T20:52:29.125Z,1.52
2016-12-26T20:53:39.266Z,1.56
2016-12-26T20:54:49.592Z,1.56
2016-12-26T21:53:07.746Z,2.52
2016-12-26T21:54:17.908Z,2.5
2016-12-26T21:55:28.126Z,2.62
2016-12-26T21:56:38.465Z,2.55
2016-12-26T22:52:04.600Z,3.66
2016-12-26T22:52:54.577Z,3.71
2016-12-26T23:51:23.034Z,3.96
2016-12-26T23:51:52.413Z,4.02
